Terminal Aerodrome Forecast
Issued by NWS Cleveland, OH

Home | Current Version | Previous Version | Text Only | Print | Product List | Glossary On
Versions: 1 2 3 4 5 6 7 8 9 10 11 12 13 14 15 16 17 18 19 20 21 22 23
000
FTUS41 KCLE 220100 AAA
TAFYNG
TAF AMD
KYNG 220152Z 2202/2224 30012KT P6SM SCT015 BKN040
      TEMPO 2202/2206 5SM -SHRA BKN015
     FM220600 31009KT P6SM VCSH SCT010 OVC022
     FM221600 32011KT P6SM BKN030
     FM222300 31007KT P6SM SCT040=

USA.gov is the U.S. government's official web portal to all federal, state and local government web resources and services.